Time;durP1;ratioP1;P1;durP2;ratioP2;P2;SDS_P1;SDS_P2;PMS_P1;PMS_P2;Temp;Humidity;BMP_temperature;BMP_pressure;BME280_temperature;BME280_humidity;BME280_pressure;Samples;Min_cycle;Max_cycle;Signal;HPM_P1;HPM_P2
2021/08/03 00:00:36;;;;;;;10.93;3.53;;;23.90;32.20;;;;;;21205330;27;81045;-74
2021/08/03 00:10:38;;;;;;;5.95;2.78;;;23.90;32.80;;;;;;21229019;27;80661;-73
2021/08/03 00:20:40;;;;;;;9.60;3.55;;;23.80;32.00;;;;;;21219733;27;79978;-74
2021/08/03 00:30:42;;;;;;;11.27;2.58;;;23.90;30.30;;;;;;21220044;27;79833;-72
2021/08/03 00:40:54;;;;;;;10.30;2.53;;;23.80;31.20;;;;;;21218736;27;79852;-74
2021/08/03 00:50:56;;;;;;;4.93;2.42;;;23.70;32.90;;;;;;21237488;27;82394;-72
2021/08/03 01:00:58;;;;;;;8.68;1.88;;;23.50;34.40;;;;;;21234922;27;80745;-73
2021/08/03 01:11:07;;;;;;;6.93;2.05;;;23.40;36.90;;;;;;21234692;27;81971;-72
2021/08/03 01:21:40;;;;;;;5.55;2.35;;;23.50;38.50;;;;;;21233617;27;83450;-71
2021/08/03 01:31:48;;;;;;;8.43;2.42;;;23.40;39.70;;;;;;21215210;27;81162;-72
2021/08/03 01:41:53;;;;;;;3.80;2.00;;;23.30;45.00;;;;;;21215365;27;80707;-73
2021/08/03 01:51:57;;;;;;;6.25;2.10;;;23.10;46.60;;;;;;21232203;27;80846;-74
2021/08/03 02:02:05;;;;;;;6.60;2.25;;;23.00;48.50;;;;;;21128115;27;81085;-71
2021/08/03 02:12:12;;;;;;;7.70;1.85;;;22.90;49.80;;;;;;21145275;27;80523;-72
2021/08/03 02:22:18;;;;;;;6.38;1.50;;;22.80;50.70;;;;;;21144825;27;81128;-72
2021/08/03 02:32:33;;;;;;;4.13;2.17;;;22.70;51.20;;;;;;21142097;27;80042;-72
2021/08/03 02:42:38;;;;;;;9.32;2.90;;;22.60;52.50;;;;;;21143801;27;83141;-71
2021/08/03 02:52:46;;;;;;;8.02;2.90;;;22.50;52.90;;;;;;21139841;27;80070;-70
2021/08/03 03:02:51;;;;;;;7.22;2.50;;;22.40;53.70;;;;;;21139499;27;80616;-71
2021/08/03 03:13:14;;;;;;;7.18;2.05;;;22.40;54.20;;;;;;21140229;27;80519;-72
2021/08/03 03:23:20;;;;;;;7.18;2.00;;;22.40;55.20;;;;;;21139669;27;80759;-73
2021/08/03 03:33:24;;;;;;;8.57;2.90;;;22.20;54.60;;;;;;21139126;27;81774;-72
2021/08/03 03:43:29;;;;;;;6.97;2.45;;;22.20;54.60;;;;;;21141572;27;80713;-72
2021/08/03 03:53:43;;;;;;;4.78;2.17;;;21.90;51.20;;;;;;21152752;27;81908;-71
2021/08/03 04:03:49;;;;;;;5.78;2.50;;;21.50;49.00;;;;;;21152476;27;79894;-71
2021/08/03 04:13:53;;;;;;;6.20;2.20;;;21.30;49.40;;;;;;21151386;27;80016;-73
2021/08/03 04:23:57;;;;;;;6.13;2.63;;;21.20;50.00;;;;;;21150610;27;80403;-71
2021/08/03 04:33:59;;;;;;;;;;;21.20;50.10;;;;;;21151508;27;81135;-72
2021/08/03 04:44:01;;;;;;;10.93;3.33;;;21.10;50.30;;;;;;21172470;27;80906;-72
2021/08/03 04:54:03;;;;;;;6.75;2.45;;;21.00;50.40;;;;;;21150182;27;79980;-72
2021/08/03 05:04:05;;;;;;;9.45;2.92;;;21.00;50.80;;;;;;21147398;27;81112;-72
2021/08/03 05:14:08;;;;;;;7.85;2.78;;;21.10;50.80;;;;;;21147922;27;80699;-72
2021/08/03 05:24:10;;;;;;;;;;;21.10;51.40;;;;;;21146828;27;81283;-71
2021/08/03 05:34:12;;;;;;;8.25;2.65;;;21.10;52.60;;;;;;21167793;27;81597;-72
2021/08/03 05:44:16;;;;;;;12.82;4.13;;;21.10;51.10;;;;;;21107734;27;81148;-72
2021/08/03 05:54:19;;;;;;;25.45;5.00;;;21.20;52.60;;;;;;21126550;27;81109;-73
2021/08/03 06:04:20;;;;;;;;;;;21.40;53.50;;;;;;21110206;27;81537;-72
2021/08/03 06:14:34;;;;;;;4.65;2.22;;;21.60;54.30;;;;;;21134217;27;81100;-71
2021/08/03 06:24:42;;;;;;;11.73;4.47;;;21.80;55.10;;;;;;21115545;27;81999;-73
2021/08/03 06:34:44;;;;;;;5.28;2.53;;;21.90;53.50;;;;;;21113536;27;81288;-72
2021/08/03 06:45:12;;;;;;;10.52;3.92;;;22.30;54.60;;;;;;21111848;27;81140;-72
2021/08/03 06:55:17;;;;;;;18.08;3.70;;;22.50;51.10;;;;;;21100390;27;81941;-71
2021/08/03 07:05:27;;;;;;;8.98;2.67;;;22.70;52.40;;;;;;21041001;27;81702;-68
2021/08/03 07:15:30;;;;;;;9.18;3.47;;;23.10;53.30;;;;;;21086463;27;81281;-68
2021/08/03 07:25:32;;;;;;;5.30;2.50;;;23.20;53.40;;;;;;21040762;27;81340;-69
2021/08/03 07:35:34;;;;;;;9.45;2.38;;;23.20;53.50;;;;;;21038370;27;81163;-69
2021/08/03 07:45:38;;;;;;;9.93;3.22;;;23.20;53.70;;;;;;21018232;27;81763;-70
2021/08/03 07:55:42;;;;;;;22.05;4.18;;;23.60;52.40;;;;;;21041584;27;81249;-69
2021/08/03 08:05:44;;;;;;;15.20;4.78;;;23.70;52.30;;;;;;21122969;27;81779;-68
2021/08/03 08:15:46;;;;;;;10.48;3.25;;;23.80;52.50;;;;;;21122289;27;82327;-69
2021/08/03 08:25:48;;;;;;;16.38;3.17;;;23.90;52.00;;;;;;21123146;27;81852;-67
2021/08/03 08:35:52;;;;;;;15.85;4.25;;;24.40;50.90;;;;;;21130354;27;81872;-68
2021/08/03 08:45:57;;;;;;;10.57;2.53;;;25.00;50.00;;;;;;21133166;27;81110;-69
2021/08/03 08:56:04;;;;;;;15.90;3.30;;;25.60;49.10;;;;;;21113169;27;81270;-71
2021/08/03 09:06:06;;;;;;;10.85;3.55;;;26.00;47.40;;;;;;21109784;27;81682;-69
2021/08/03 09:16:12;;;;;;;7.30;3.15;;;25.70;48.50;;;;;;21133651;27;81664;-70
2021/08/03 09:26:15;;;;;;;10.73;3.60;;;25.70;48.50;;;;;;21117692;27;80781;-69
2021/08/03 09:36:42;;;;;;;10.40;2.88;;;26.10;48.20;;;;;;21133448;27;81560;-69
2021/08/03 09:46:56;;;;;;;12.95;2.95;;;26.50;46.60;;;;;;21114029;27;81309;-70
2021/08/03 09:56:58;;;;;;;9.10;3.00;;;27.00;45.30;;;;;;21132939;27;82046;-69
2021/08/03 10:07:01;;;;;;;9.48;3.17;;;27.30;44.30;;;;;;21113147;27;81976;-68
2021/08/03 10:17:03;;;;;;;9.00;3.05;;;28.00;42.40;;;;;;21113672;27;80870;-68
2021/08/03 10:27:17;;;;;;;8.63;3.20;;;29.00;40.90;;;;;;21128871;27;81841;-70
2021/08/03 10:37:24;;;;;;;7.20;2.85;;;30.50;38.70;;;;;;21131275;27;81731;-69
2021/08/03 10:47:39;;;;;;;8.32;2.67;;;30.90;38.10;;;;;;21113088;27;80897;-70
2021/08/03 10:58:10;;;;;;;9.95;3.40;;;32.50;34.20;;;;;;21108037;27;80621;-71
2021/08/03 11:08:35;;;;;;;7.07;2.57;;;31.50;35.10;;;;;;21124501;27;80763;-70
2021/08/03 11:18:45;;;;;;;6.47;2.00;;;34.60;30.20;;;;;;21124417;27;80698;-69
2021/08/03 11:29:13;;;;;;;6.57;2.22;;;37.90;25.90;;;;;;21104402;27;81702;-69
2021/08/03 11:39:24;;;;;;;9.15;3.10;;;41.10;22.20;;;;;;21105988;27;82158;-72
2021/08/03 11:49:27;;;;;;;;;;;43.30;20.30;;;;;;21122327;27;81547;-71
2021/08/03 12:00:00;;;;;;;5.18;2.53;;;42.90;20.60;;;;;;21148629;27;83295;-73
2021/08/03 12:10:03;;;;;;;5.63;1.98;;;45.40;17.40;;;;;;21111183;27;81317;-72
2021/08/03 12:20:31;;;;;;;3.15;2.13;;;46.20;16.50;;;;;;21112900;27;82025;-71
2021/08/03 12:30:38;;;;;;;5.30;1.98;;;48.00;15.10;;;;;;21137002;27;82561;-72
2021/08/03 12:40:41;;;;;;;4.85;2.75;;;48.00;14.90;;;;;;21135667;27;81809;-64
2021/08/03 12:50:47;;;;;;;4.68;2.20;;;48.20;14.90;;;;;;21141196;27;80734;-63
2021/08/03 13:00:49;;;;;;;4.30;2.80;;;50.50;14.10;;;;;;21115321;27;81553;-68
2021/08/03 13:10:51;;;;;;;2.97;2.33;;;49.10;14.20;;;;;;21115893;27;81933;-63
2021/08/03 13:20:55;;;;;;;3.47;2.85;;;51.40;13.00;;;;;;21118032;27;81821;-60
2021/08/03 13:30:58;;;;;;;2.42;2.20;;;51.00;12.60;;;;;;21134912;27;81245;-65
2021/08/03 13:41:00;;;;;;;3.47;2.83;;;50.50;12.60;;;;;;21142724;27;80755;-63
2021/08/03 13:51:04;;;;;;;4.03;3.10;;;50.50;12.80;;;;;;21143371;27;81038;-65
2021/08/03 14:01:07;;;;;;;3.42;3.13;;;52.90;11.80;;;;;;21144873;27;80985;-69
2021/08/03 14:11:09;;;;;;;3.47;3.17;;;53.20;11.60;;;;;;21144139;27;80688;-68
2021/08/03 14:21:11;;;;;;;3.55;3.25;;;54.40;11.20;;;;;;21142017;27;81666;-68
2021/08/03 14:31:13;;;;;;;3.33;3.13;;;53.80;11.00;;;;;;21141317;27;80992;-68
2021/08/03 14:41:20;;;;;;;3.72;3.22;;;47.70;13.00;;;;;;21124110;27;80867;-69
2021/08/03 14:51:21;;;;;;;3.65;3.35;;;51.10;11.60;;;;;;21123780;27;80712;-69
2021/08/03 15:01:24;;;;;;;4.97;3.05;;;53.50;11.30;;;;;;21122844;27;81057;-67
2021/08/03 15:11:25;;;;;;;4.68;3.03;;;50.60;12.80;;;;;;21123129;27;81361;-68
2021/08/03 15:21:29;;;;;;;4.95;3.00;;;44.50;14.80;;;;;;21139772;27;79873;-67
2021/08/03 15:31:31;;;;;;;3.88;2.30;;;40.30;17.10;;;;;;21120555;27;80786;-67
2021/08/03 15:41:33;;;;;;;4.13;2.28;;;38.40;18.70;;;;;;21125579;27;79941;-69
2021/08/03 15:51:35;;;;;;;3.35;2.15;;;37.30;19.40;;;;;;21135766;27;81750;-69
2021/08/03 16:01:38;;;;;;;5.20;2.47;;;36.50;19.80;;;;;;21134293;27;80980;-69
2021/08/03 16:11:40;;;;;;;3.25;2.35;;;35.90;20.30;;;;;;21133367;27;80041;-66
2021/08/03 16:21:43;;;;;;;4.18;2.20;;;36.80;19.90;;;;;;21135262;27;81129;-63
2021/08/03 16:31:51;;;;;;;8.95;3.10;;;38.90;18.30;;;;;;21134797;27;82169;-63
2021/08/03 16:41:55;;;;;;;41.00;4.63;;;37.10;20.20;;;;;;21132647;27;80736;-65
2021/08/03 16:52:00;;;;;;;3.05;2.00;;;35.80;21.50;;;;;;21130788;27;80399;-64
2021/08/03 17:02:28;;;;;;;2.78;2.20;;;35.30;21.30;;;;;;21130113;27;82013;-66
2021/08/03 17:12:41;;;;;;;3.05;2.33;;;34.40;22.20;;;;;;21129877;27;80722;-62
2021/08/03 17:22:48;;;;;;;2.55;2.00;;;33.80;22.70;;;;;;21129714;27;81888;-65
2021/08/03 17:32:50;;;;;;;1.95;1.60;;;34.10;22.50;;;;;;21147376;27;80617;-66
2021/08/03 17:42:52;;;;;;;4.90;2.30;;;34.10;22.60;;;;;;21128432;27;80743;-72
2021/08/03 17:52:55;;;;;;;3.78;1.98;;;33.60;22.90;;;;;;21127777;27;82107;-65
2021/08/03 18:02:59;;;;;;;3.50;1.92;;;34.20;22.40;;;;;;21125584;27;79832;-65
2021/08/03 18:13:01;;;;;;;8.50;2.30;;;34.70;22.00;;;;;;21143967;27;82062;-64
2021/08/03 18:23:03;;;;;;;3.95;1.90;;;34.90;21.70;;;;;;21126193;27;81143;-64
2021/08/03 18:33:07;;;;;;;3.80;2.03;;;34.20;22.30;;;;;;21118541;27;80738;-67
2021/08/03 18:43:19;;;;;;;3.13;1.92;;;33.50;23.00;;;;;;21137524;27;80814;-65
2021/08/03 18:53:25;;;;;;;2.55;1.85;;;32.40;24.20;;;;;;21142901;27;81221;-65
2021/08/03 19:03:28;;;;;;;2.85;1.77;;;31.50;25.40;;;;;;21122834;27;81636;-68
2021/08/03 19:13:35;;;;;;;7.18;2.10;;;31.10;25.70;;;;;;21140111;27;80826;-62
2021/08/03 19:23:44;;;;;;;3.50;2.00;;;30.70;26.20;;;;;;21122685;27;81125;-64
2021/08/03 19:33:46;;;;;;;6.85;1.95;;;30.40;26.50;;;;;;21122231;27;80511;-72
2021/08/03 19:43:49;;;;;;;3.80;2.13;;;30.20;26.80;;;;;;21122909;27;81109;-74
2021/08/03 19:53:52;;;;;;;4.07;2.53;;;29.90;27.10;;;;;;21072599;27;80810;-72
2021/08/03 20:03:55;;;;;;;5.63;2.20;;;29.80;27.50;;;;;;21035674;27;80724;-73
2021/08/03 20:13:57;;;;;;;7.05;2.58;;;29.60;27.60;;;;;;21035049;27;80119;-72
2021/08/03 20:24:00;;;;;;;4.07;2.03;;;29.40;28.00;;;;;;21035371;27;81036;-72
2021/08/03 20:34:18;;;;;;;3.38;1.58;;;29.30;28.10;;;;;;21050008;27;80015;-72
2021/08/03 20:44:20;;;;;;;3.00;1.60;;;29.20;28.40;;;;;;21048089;27;80652;-70
2021/08/03 20:54:25;;;;;;;5.05;1.98;;;29.00;28.50;;;;;;21046756;27;81304;-70
2021/08/03 21:04:38;;;;;;;3.88;2.45;;;28.90;28.80;;;;;;21064551;27;80858;-71
2021/08/03 21:14:43;;;;;;;2.42;1.73;;;28.70;29.10;;;;;;21064722;27;80217;-71
2021/08/03 21:24:45;;;;;;;4.30;2.33;;;28.50;29.20;;;;;;21063865;27;80485;-72
2021/08/03 21:34:47;;;;;;;3.85;2.20;;;28.40;29.60;;;;;;21063154;27;80066;-71
2021/08/03 21:44:50;;;;;;;4.43;2.05;;;28.30;29.80;;;;;;21043535;27;81795;-71
2021/08/03 21:54:55;;;;;;;6.50;1.95;;;28.20;29.80;;;;;;21061477;27;80988;-72
2021/08/03 22:04:57;;;;;;;5.75;2.80;;;28.00;30.50;;;;;;21026277;27;80579;-73
2021/08/03 22:15:00;;;;;;;5.85;2.17;;;27.90;29.70;;;;;;21042198;27;80867;-71
2021/08/03 22:25:04;;;;;;;5.28;2.08;;;27.90;28.90;;;;;;21041722;27;80085;-71
2021/08/03 22:35:07;;;;;;;2.97;2.00;;;27.80;28.60;;;;;;21041135;27;80844;-70
2021/08/03 22:45:10;;;;;;;5.20;1.90;;;27.70;27.30;;;;;;21040192;27;81199;-71
2021/08/03 22:55:12;;;;;;;5.55;1.65;;;27.70;26.40;;;;;;21056298;27;82076;-71
2021/08/03 23:05:13;;;;;;;4.63;1.95;;;27.70;25.80;;;;;;21056902;27;79976;-71
2021/08/03 23:15:15;;;;;;;3.85;1.80;;;27.70;25.30;;;;;;21038808;27;79897;-71
2021/08/03 23:25:17;;;;;;;4.82;2.10;;;27.60;25.20;;;;;;21037448;27;80530;-71
2021/08/03 23:35:22;;;;;;;4.28;1.92;;;27.60;25.20;;;;;;21037475;27;80641;-71
2021/08/03 23:45:24;;;;;;;5.38;1.70;;;27.60;25.30;;;;;;21036831;27;81754;-71
2021/08/03 23:55:27;;;;;;;3.28;1.98;;;27.60;25.60;;;;;;21035546;27;80727;-71
